createdAt,value
2019-05-23T00:00:00.588Z,13.2
2019-05-23T00:05:00.491Z,13.3
2019-05-23T00:10:00.317Z,12.6
2019-05-23T00:15:00.443Z,12.8
2019-05-23T00:20:00.317Z,12.5
2019-05-23T00:25:00.307Z,13.0
2019-05-23T00:30:00.320Z,12.4
2019-05-23T00:40:00.452Z,12.5
2019-05-23T00:45:00.459Z,13.2
2019-05-23T00:55:00.953Z,14.6
2019-05-23T01:00:00.323Z,14.6
2019-05-23T01:10:00.365Z,15.6
2019-05-23T01:15:00.416Z,16.7
2019-05-23T01:20:00.321Z,16.4
2019-05-23T01:25:00.365Z,17.2
2019-05-23T01:30:00.369Z,18.7
2019-05-23T01:35:00.437Z,18.6
2019-05-23T01:40:00.310Z,18.5
2019-05-23T01:45:00.374Z,18.9
2019-05-23T01:50:00.337Z,21.0
2019-05-23T01:55:00.895Z,20.4
2019-05-23T02:00:09.574Z,22.0
2019-05-23T02:05:00.518Z,24.1
2019-05-23T02:10:00.395Z,27.2
2019-05-23T02:15:00.390Z,27.4
2019-05-23T02:20:00.327Z,28.9
2019-05-23T02:25:00.326Z,28.6
2019-05-23T02:30:00.331Z,29.2
2019-05-23T02:35:00.610Z,28.4
2019-05-23T02:40:00.351Z,26.8
2019-05-23T02:45:00.404Z,27.1
2019-05-23T02:50:00.337Z,27.8
2019-05-23T02:55:00.504Z,27.3
2019-05-23T03:00:00.347Z,27.0
2019-05-23T03:20:01.100Z,24.0
2019-05-23T03:25:01.058Z,25.6
2019-05-23T03:30:00.967Z,24.3
2019-05-23T03:35:02.089Z,24.7
2019-05-23T03:40:00.937Z,24.8
2019-05-23T03:45:01.070Z,25.6
2019-05-23T03:50:00.939Z,26.9
2019-05-23T03:55:01.006Z,27.8
2019-05-23T04:00:03.223Z,28.5
2019-05-23T04:05:01.010Z,27.7
2019-05-23T04:10:00.948Z,26.8
2019-05-23T04:15:01.075Z,24.8
2019-05-23T04:20:00.947Z,24.6
2019-05-23T04:25:02.270Z,23.4
2019-05-23T04:30:01.190Z,24.4
2019-05-23T04:35:01.026Z,25.7
2019-05-23T04:40:00.959Z,28.2
2019-05-23T04:45:01.090Z,30.2
2019-05-23T04:50:00.965Z,33.4
2019-05-23T04:55:01.031Z,34.3
2019-05-23T05:00:00.996Z,35.8
2019-05-23T05:05:01.035Z,36.0
2019-05-23T05:10:00.970Z,34.8
2019-05-23T05:15:01.104Z,34.9
2019-05-23T05:20:00.975Z,35.6
2019-05-23T05:25:01.045Z,34.4
2019-05-23T05:30:00.978Z,34.1
2019-05-23T05:35:01.046Z,34.8
2019-05-23T05:40:01.018Z,33.1
2019-05-23T05:45:00.986Z,32.6
2019-05-23T05:50:00.988Z,31.5
2019-05-23T05:55:01.216Z,31.4
2019-05-23T06:00:01.003Z,29.0
2019-05-23T06:05:01.063Z,28.8
2019-05-23T06:10:00.998Z,27.1
2019-05-23T06:15:01.129Z,29.3
2019-05-23T06:20:01.000Z,26.8
2019-05-23T06:25:01.133Z,27.1
2019-05-23T06:30:01.023Z,26.0
2019-05-23T06:35:01.102Z,25.4
2019-05-23T06:40:01.030Z,22.0
2019-05-23T06:45:01.180Z,20.9
2019-05-23T06:50:01.031Z,20.1
2019-05-23T06:55:01.124Z,18.6
2019-05-23T07:00:01.022Z,17.4
2019-05-23T07:05:01.107Z,16.0
2019-05-23T07:10:01.019Z,15.0
2019-05-23T07:15:01.088Z,13.8
2019-05-23T07:20:01.031Z,13.2
2019-05-23T07:25:01.164Z,12.9
2019-05-23T07:30:01.026Z,12.9
2019-05-23T07:35:01.030Z,13.4
2019-05-23T07:40:01.030Z,13.8
2019-05-23T07:45:01.140Z,14.6
2019-05-23T07:50:01.036Z,14.5
2019-05-23T07:55:01.038Z,14.9
2019-05-23T08:00:01.040Z,13.7
2019-05-23T08:05:01.330Z,13.6
2019-05-23T08:10:02.475Z,12.4
2019-05-23T08:15:01.126Z,12.5
2019-05-23T08:20:01.049Z,12.0
2019-05-23T08:25:01.048Z,12.8
2019-05-23T08:30:02.294Z,12.6
2019-05-23T08:35:01.085Z,12.4
2019-05-23T08:40:01.067Z,12.0
2019-05-23T08:45:01.062Z,12.7
2019-05-23T08:50:01.070Z,13.2
2019-05-23T08:55:01.064Z,12.6
2019-05-23T09:00:01.070Z,12.9
2019-05-23T09:05:04.818Z,13.5
2019-05-23T09:10:01.066Z,14.3
2019-05-23T09:15:01.069Z,14.1
2019-05-23T09:20:01.073Z,15.2
2019-05-23T09:25:01.072Z,15.1
2019-05-23T09:30:01.081Z,15.4
2019-05-23T09:35:01.082Z,14.3
2019-05-23T09:40:01.049Z,13.8
2019-05-23T09:45:01.171Z,13.1
2019-05-23T09:50:01.104Z,13.0
2019-05-23T09:55:01.111Z,12.5
2019-05-23T10:00:01.118Z,12.1
2019-05-23T10:05:01.189Z,12.3
2019-05-23T10:10:01.104Z,12.6
2019-05-23T10:15:01.166Z,12.5
2019-05-23T10:20:01.103Z,12.3
2019-05-23T10:25:01.245Z,12.4
2019-05-23T10:30:01.081Z,13.0
2019-05-23T10:35:01.214Z,12.9
2019-05-23T10:40:01.158Z,13.2
2019-05-23T10:45:01.134Z,13.6
2019-05-23T10:55:01.171Z,13.2
2019-05-23T11:00:01.647Z,13.2
2019-05-23T11:05:11.969Z,13.0
2019-05-23T11:15:01.112Z,13.0
2019-05-23T11:20:01.115Z,12.7
2019-05-23T11:26:02.240Z,13.3
2019-05-23T11:31:01.112Z,13.4
2019-05-23T11:36:01.249Z,13.5
2019-05-23T11:41:11.128Z,14.2
2019-05-23T11:46:01.874Z,15.4
2019-05-23T11:51:01.076Z,15.2
2019-05-23T11:56:01.183Z,15.4
2019-05-23T12:01:01.180Z,16.6
2019-05-23T12:06:05.122Z,16.7
2019-05-23T12:11:01.110Z,16.8
2019-05-23T12:16:02.144Z,17.1
2019-05-23T12:21:01.074Z,17.7
2019-05-23T12:26:01.168Z,17.6
2019-05-23T12:31:01.071Z,16.8
2019-05-23T12:41:06.239Z,17.1
2019-05-23T12:46:06.259Z,17.2
2019-05-23T12:51:01.137Z,16.6
2019-05-23T12:56:06.245Z,17.7
2019-05-23T13:01:01.128Z,17.8
2019-05-23T13:06:06.186Z,17.3
2019-05-23T13:11:06.106Z,17.5
2019-05-23T13:16:01.262Z,17.3
2019-05-23T13:21:01.149Z,17.8
2019-05-23T13:26:01.213Z,17.9
2019-05-23T13:31:01.665Z,18.5
2019-05-23T13:36:01.175Z,18.2
2019-05-23T13:41:01.100Z,18.5
2019-05-23T13:46:01.171Z,17.8
2019-05-23T13:51:01.192Z,17.2
2019-05-23T13:56:01.246Z,18.1
2019-05-23T14:06:01.176Z,18.3
2019-05-23T14:11:01.132Z,18.5
2019-05-23T14:16:01.239Z,19.2
2019-05-23T14:21:01.108Z,18.7
2019-05-23T14:26:01.173Z,19.2
2019-05-23T14:31:01.114Z,20.2
2019-05-23T14:36:01.248Z,19.6
2019-05-23T14:41:01.235Z,19.2
2019-05-23T14:46:01.174Z,18.2
2019-05-23T14:51:01.121Z,17.5
2019-05-23T14:56:01.177Z,15.6
2019-05-23T15:01:01.104Z,16.0
2019-05-23T15:06:01.173Z,15.6
2019-05-23T15:11:01.113Z,15.5
2019-05-23T15:16:01.245Z,16.4
2019-05-23T15:21:01.137Z,17.2
2019-05-23T15:26:01.169Z,16.8
2019-05-23T15:31:01.111Z,17.0
2019-05-23T15:36:01.171Z,17.6
2019-05-23T15:41:01.103Z,17.4
2019-05-23T15:46:02.180Z,17.9
2019-05-23T15:51:01.328Z,19.4
2019-05-23T15:56:25.761Z,20.2
2019-05-23T16:01:01.081Z,21.2
2019-05-23T16:06:01.166Z,22.0
2019-05-23T16:11:01.073Z,22.3
2019-05-23T16:16:01.176Z,22.6
2019-05-23T16:21:01.108Z,22.5
2019-05-23T16:26:01.300Z,22.2
2019-05-23T16:31:01.104Z,22.0
2019-05-23T16:36:06.235Z,22.6
2019-05-23T16:46:01.256Z,23.2
2019-05-23T16:51:06.109Z,23.7
2019-05-23T16:56:01.269Z,24.5
2019-05-23T17:01:01.094Z,24.6
2019-05-23T17:06:01.228Z,24.9
2019-05-23T17:11:01.101Z,25.7
2019-05-23T17:16:02.507Z,27.8
2019-05-23T17:21:01.101Z,28.8
2019-05-23T17:26:01.171Z,30.3
2019-05-23T17:31:06.108Z,33.2
2019-05-23T17:36:06.237Z,35.1
2019-05-23T17:41:06.111Z,34.4
2019-05-23T17:46:06.259Z,35.6
2019-05-23T17:51:06.118Z,36.5
2019-05-23T17:56:06.194Z,34.8
2019-05-23T18:01:02.177Z,34.1
2019-05-23T18:11:06.184Z,32.5
2019-05-23T18:16:06.255Z,30.8
2019-05-23T18:21:01.146Z,28.7
2019-05-23T18:26:01.207Z,27.4
2019-05-23T18:31:05.453Z,27.0
2019-05-23T18:36:06.110Z,26.0
2019-05-23T18:41:09.095Z,25.3
2019-05-23T18:46:06.248Z,24.6
2019-05-23T18:51:01.135Z,23.6
2019-05-23T18:56:01.203Z,21.6
2019-05-23T19:01:06.113Z,20.7
2019-05-23T19:06:06.115Z,19.9
2019-05-23T19:11:01.157Z,20.4
2019-05-23T19:16:01.108Z,19.5
2019-05-23T19:21:01.156Z,20.5
2019-05-23T19:26:01.244Z,20.8
2019-05-23T19:31:01.114Z,21.0
2019-05-23T19:41:01.114Z,21.6
2019-05-23T19:46:01.177Z,20.4
2019-05-23T19:51:01.182Z,20.0
2019-05-23T19:56:01.242Z,19.6
2019-05-23T20:01:02.485Z,19.4
2019-05-23T20:06:01.175Z,20.2
2019-05-23T20:11:01.124Z,21.0
2019-05-23T20:16:01.181Z,22.5
2019-05-23T20:22:01.102Z,23.4
2019-05-23T20:27:01.178Z,24.0
2019-05-23T20:32:01.103Z,23.8
2019-05-23T20:37:01.237Z,24.6
2019-05-23T20:42:10.625Z,24.9
2019-05-23T20:47:01.110Z,24.7
2019-05-23T20:52:01.111Z,25.6
2019-05-23T20:57:01.192Z,26.1
2019-05-23T21:02:06.107Z,26.0
2019-05-23T21:07:06.111Z,26.6
2019-05-23T21:12:01.121Z,26.5
2019-05-23T21:17:01.238Z,27.2
2019-05-23T21:22:01.105Z,28.9
2019-05-23T21:27:01.175Z,29.7
2019-05-23T21:32:01.116Z,29.6
2019-05-23T21:38:01.174Z,32.2
2019-05-23T21:43:01.250Z,34.4
2019-05-23T21:48:01.111Z,34.8
2019-05-23T21:53:01.692Z,36.5
2019-05-23T21:58:06.149Z,37.9
2019-05-23T22:03:01.271Z,40.5
2019-05-23T22:08:01.121Z,41.4
2019-05-23T22:13:04.118Z,42.6
2019-05-23T22:18:01.119Z,43.9
2019-05-23T22:23:01.173Z,45.6
2019-05-23T22:28:06.106Z,45.1
2019-05-23T22:33:06.188Z,46.2
2019-05-23T22:38:01.143Z,47.9
2019-05-23T22:43:01.197Z,48.8
2019-05-23T22:48:01.137Z,50.4
2019-05-23T22:53:01.230Z,51.5
2019-05-23T23:03:01.287Z,51.0
2019-05-23T23:08:01.147Z,51.2
2019-05-23T23:13:01.226Z,51.1
2019-05-23T23:18:01.140Z,51.7
2019-05-23T23:23:01.212Z,50.8
2019-05-23T23:28:01.136Z,51.1
2019-05-23T23:33:01.200Z,50.0
2019-05-23T23:48:01.171Z,50.3
2019-05-23T23:53:01.249Z,51.1
2019-05-23T23:58:01.116Z,51.5
